sensor_id;sensor_type;location;lat;lon;timestamp;temperature;humidity
33717;DHT22;20046;50.746;7.072;2024-01-30T00:01:15;8.50;99.90
33717;DHT22;20046;50.746;7.072;2024-01-30T00:03:41;8.50;99.90
33717;DHT22;20046;50.746;7.072;2024-01-30T00:06:10;8.50;99.90
33717;DHT22;20046;50.746;7.072;2024-01-30T00:08:36;8.50;99.90
33717;DHT22;20046;50.746;7.072;2024-01-30T00:11:01;8.50;99.90
33717;DHT22;20046;50.746;7.072;2024-01-30T00:13:27;8.50;99.90
33717;DHT22;20046;50.746;7.072;2024-01-30T00:15:52;8.40;99.90
33717;DHT22;20046;50.746;7.072;2024-01-30T00:18:19;8.40;99.90
33717;DHT22;20046;50.746;7.072;2024-01-30T00:20:45;8.30;99.90
33717;DHT22;20046;50.746;7.072;2024-01-30T00:23:10;8.40;99.90
33717;DHT22;20046;50.746;7.072;2024-01-30T00:25:36;8.30;99.90
33717;DHT22;20046;50.746;7.072;2024-01-30T00:28:01;8.40;99.90
33717;DHT22;20046;50.746;7.072;2024-01-30T00:30:27;8.40;99.90
33717;DHT22;20046;50.746;7.072;2024-01-30T00:32:53;8.30;99.90
33717;DHT22;20046;50.746;7.072;2024-01-30T00:35:19;8.30;99.90
33717;DHT22;20046;50.746;7.072;2024-01-30T00:37:45;8.20;99.90
33717;DHT22;20046;50.746;7.072;2024-01-30T00:40:10;8.30;99.90
33717;DHT22;20046;50.746;7.072;2024-01-30T00:42:41;8.30;99.90
33717;DHT22;20046;50.746;7.072;2024-01-30T00:45:12;8.30;99.90
33717;DHT22;20046;50.746;7.072;2024-01-30T00:47:38;8.30;99.90
33717;DHT22;20046;50.746;7.072;2024-01-30T00:50:04;8.30;99.90
33717;DHT22;20046;50.746;7.072;2024-01-30T00:52:29;8.30;99.90
33717;DHT22;20046;50.746;7.072;2024-01-30T00:54:55;8.30;99.90
33717;DHT22;20046;50.746;7.072;2024-01-30T00:57:20;8.30;99.90
33717;DHT22;20046;50.746;7.072;2024-01-30T00:59:46;8.20;99.90
33717;DHT22;20046;50.746;7.072;2024-01-30T01:02:11;8.20;99.90
33717;DHT22;20046;50.746;7.072;2024-01-30T01:04:37;8.20;99.90
33717;DHT22;20046;50.746;7.072;2024-01-30T01:07:03;8.20;99.90
33717;DHT22;20046;50.746;7.072;2024-01-30T01:09:28;8.20;99.90
33717;DHT22;20046;50.746;7.072;2024-01-30T01:11:54;8.20;99.90
33717;DHT22;20046;50.746;7.072;2024-01-30T01:14:19;8.30;99.90
33717;DHT22;20046;50.746;7.072;2024-01-30T01:16:45;8.20;99.90
33717;DHT22;20046;50.746;7.072;2024-01-30T01:19:10;8.20;99.90
33717;DHT22;20046;50.746;7.072;2024-01-30T01:21:36;8.30;99.90
33717;DHT22;20046;50.746;7.072;2024-01-30T01:24:02;8.20;99.90
33717;DHT22;20046;50.746;7.072;2024-01-30T01:26:27;8.20;99.90
33717;DHT22;20046;50.746;7.072;2024-01-30T01:28:53;8.20;99.90
33717;DHT22;20046;50.746;7.072;2024-01-30T01:31:18;8.20;99.90
33717;DHT22;20046;50.746;7.072;2024-01-30T01:33:44;8.20;99.90
33717;DHT22;20046;50.746;7.072;2024-01-30T01:36:10;8.20;99.90
33717;DHT22;20046;50.746;7.072;2024-01-30T01:38:35;8.20;99.90
33717;DHT22;20046;50.746;7.072;2024-01-30T01:41:01;8.30;99.90
33717;DHT22;20046;50.746;7.072;2024-01-30T01:43:26;8.20;99.90
33717;DHT22;20046;50.746;7.072;2024-01-30T01:45:52;8.20;99.90
33717;DHT22;20046;50.746;7.072;2024-01-30T01:48:17;8.20;99.90
33717;DHT22;20046;50.746;7.072;2024-01-30T01:50:43;8.20;99.90
33717;DHT22;20046;50.746;7.072;2024-01-30T01:53:09;8.20;99.90
33717;DHT22;20046;50.746;7.072;2024-01-30T01:55:35;8.20;99.90
33717;DHT22;20046;50.746;7.072;2024-01-30T01:58:01;8.20;99.90
33717;DHT22;20046;50.746;7.072;2024-01-30T02:00:27;8.20;99.90
33717;DHT22;20046;50.746;7.072;2024-01-30T02:02:54;8.20;99.90
33717;DHT22;20046;50.746;7.072;2024-01-30T02:05:21;8.20;99.90
33717;DHT22;20046;50.746;7.072;2024-01-30T02:07:47;8.20;99.90
33717;DHT22;20046;50.746;7.072;2024-01-30T02:10:13;8.20;99.90
33717;DHT22;20046;50.746;7.072;2024-01-30T02:12:39;8.20;99.90
33717;DHT22;20046;50.746;7.072;2024-01-30T02:15:05;8.20;99.90
33717;DHT22;20046;50.746;7.072;2024-01-30T02:17:31;8.20;99.90
33717;DHT22;20046;50.746;7.072;2024-01-30T02:19:57;8.30;99.90
33717;DHT22;20046;50.746;7.072;2024-01-30T02:22:22;8.30;99.90
33717;DHT22;20046;50.746;7.072;2024-01-30T02:24:49;8.20;99.90
33717;DHT22;20046;50.746;7.072;2024-01-30T02:27:15;8.20;99.90
33717;DHT22;20046;50.746;7.072;2024-01-30T02:29:40;8.20;99.90
33717;DHT22;20046;50.746;7.072;2024-01-30T02:32:06;8.30;99.90
33717;DHT22;20046;50.746;7.072;2024-01-30T02:34:33;8.30;99.90
33717;DHT22;20046;50.746;7.072;2024-01-30T02:36:58;8.30;99.90
33717;DHT22;20046;50.746;7.072;2024-01-30T02:39:24;8.30;99.90
33717;DHT22;20046;50.746;7.072;2024-01-30T02:41:50;8.30;99.90
33717;DHT22;20046;50.746;7.072;2024-01-30T02:44:15;8.20;99.90
33717;DHT22;20046;50.746;7.072;2024-01-30T02:46:41;8.20;99.90
33717;DHT22;20046;50.746;7.072;2024-01-30T02:49:06;8.20;99.90
33717;DHT22;20046;50.746;7.072;2024-01-30T02:51:32;8.20;99.90
33717;DHT22;20046;50.746;7.072;2024-01-30T02:53:57;8.20;99.90
33717;DHT22;20046;50.746;7.072;2024-01-30T02:56:23;8.30;99.90
33717;DHT22;20046;50.746;7.072;2024-01-30T02:58:49;8.30;99.90
33717;DHT22;20046;50.746;7.072;2024-01-30T03:01:14;8.20;99.90
33717;DHT22;20046;50.746;7.072;2024-01-30T03:03:40;8.20;99.90
33717;DHT22;20046;50.746;7.072;2024-01-30T03:06:06;8.20;99.90
33717;DHT22;20046;50.746;7.072;2024-01-30T03:08:32;8.10;99.90
33717;DHT22;20046;50.746;7.072;2024-01-30T03:11:00;8.10;99.90
33717;DHT22;20046;50.746;7.072;2024-01-30T03:13:25;8.10;99.90
33717;DHT22;20046;50.746;7.072;2024-01-30T03:15:51;8.10;99.90
33717;DHT22;20046;50.746;7.072;2024-01-30T03:18:16;8.10;99.90
33717;DHT22;20046;50.746;7.072;2024-01-30T03:20:42;8.10;99.90
33717;DHT22;20046;50.746;7.072;2024-01-30T03:23:08;8.10;99.90
33717;DHT22;20046;50.746;7.072;2024-01-30T03:25:33;8.10;99.90
33717;DHT22;20046;50.746;7.072;2024-01-30T03:27:59;8.10;99.90
33717;DHT22;20046;50.746;7.072;2024-01-30T03:30:24;8.00;99.90
33717;DHT22;20046;50.746;7.072;2024-01-30T03:32:50;8.10;99.90
33717;DHT22;20046;50.746;7.072;2024-01-30T03:35:15;8.10;99.90
33717;DHT22;20046;50.746;7.072;2024-01-30T03:37:41;8.00;99.90
33717;DHT22;20046;50.746;7.072;2024-01-30T03:40:07;8.00;99.90
33717;DHT22;20046;50.746;7.072;2024-01-30T03:42:33;8.00;99.90
33717;DHT22;20046;50.746;7.072;2024-01-30T03:44:58;8.00;99.90
33717;DHT22;20046;50.746;7.072;2024-01-30T03:47:24;8.00;99.90
33717;DHT22;20046;50.746;7.072;2024-01-30T03:49:49;7.90;99.90
33717;DHT22;20046;50.746;7.072;2024-01-30T03:52:15;8.00;99.90
33717;DHT22;20046;50.746;7.072;2024-01-30T03:54:41;7.90;99.90
33717;DHT22;20046;50.746;7.072;2024-01-30T03:57:06;7.90;99.90
33717;DHT22;20046;50.746;7.072;2024-01-30T03:59:32;7.90;99.90
33717;DHT22;20046;50.746;7.072;2024-01-30T04:01:57;7.90;99.90
33717;DHT22;20046;50.746;7.072;2024-01-30T04:04:23;7.90;99.90
33717;DHT22;20046;50.746;7.072;2024-01-30T04:06:48;7.80;99.90
33717;DHT22;20046;50.746;7.072;2024-01-30T04:09:14;7.80;99.90
33717;DHT22;20046;50.746;7.072;2024-01-30T04:11:40;7.80;99.90
33717;DHT22;20046;50.746;7.072;2024-01-30T04:14:07;7.80;99.90
33717;DHT22;20046;50.746;7.072;2024-01-30T04:16:32;7.80;99.90
33717;DHT22;20046;50.746;7.072;2024-01-30T04:18:58;7.90;99.90
33717;DHT22;20046;50.746;7.072;2024-01-30T04:21:23;7.90;99.90
33717;DHT22;20046;50.746;7.072;2024-01-30T04:23:51;7.80;99.90
33717;DHT22;20046;50.746;7.072;2024-01-30T04:26:16;7.80;99.90
33717;DHT22;20046;50.746;7.072;2024-01-30T04:28:44;7.80;99.90
33717;DHT22;20046;50.746;7.072;2024-01-30T04:31:09;7.80;99.90
33717;DHT22;20046;50.746;7.072;2024-01-30T04:33:35;7.80;99.90
33717;DHT22;20046;50.746;7.072;2024-01-30T04:36:01;7.80;99.90
33717;DHT22;20046;50.746;7.072;2024-01-30T04:38:26;7.70;99.90
33717;DHT22;20046;50.746;7.072;2024-01-30T04:40:52;7.80;99.90
33717;DHT22;20046;50.746;7.072;2024-01-30T04:43:18;7.70;99.90
33717;DHT22;20046;50.746;7.072;2024-01-30T04:45:44;7.70;99.90
33717;DHT22;20046;50.746;7.072;2024-01-30T04:48:10;7.70;99.90
33717;DHT22;20046;50.746;7.072;2024-01-30T04:50:35;7.70;99.90
33717;DHT22;20046;50.746;7.072;2024-01-30T04:53:01;7.70;99.90
33717;DHT22;20046;50.746;7.072;2024-01-30T04:55:27;7.70;99.90
33717;DHT22;20046;50.746;7.072;2024-01-30T04:57:52;7.60;99.90
33717;DHT22;20046;50.746;7.072;2024-01-30T05:00:18;7.60;99.90
33717;DHT22;20046;50.746;7.072;2024-01-30T05:02:44;7.60;99.90
33717;DHT22;20046;50.746;7.072;2024-01-30T05:05:09;7.60;99.90
33717;DHT22;20046;50.746;7.072;2024-01-30T05:07:36;7.50;99.90
33717;DHT22;20046;50.746;7.072;2024-01-30T05:10:02;7.50;99.90
33717;DHT22;20046;50.746;7.072;2024-01-30T05:12:28;7.50;99.90
33717;DHT22;20046;50.746;7.072;2024-01-30T05:14:54;7.40;99.90
33717;DHT22;20046;50.746;7.072;2024-01-30T05:17:19;7.50;99.90
33717;DHT22;20046;50.746;7.072;2024-01-30T05:19:45;7.40;99.90
33717;DHT22;20046;50.746;7.072;2024-01-30T05:22:11;7.40;99.90
33717;DHT22;20046;50.746;7.072;2024-01-30T05:24:41;7.30;99.90
33717;DHT22;20046;50.746;7.072;2024-01-30T05:27:07;7.30;99.90
33717;DHT22;20046;50.746;7.072;2024-01-30T05:29:32;7.30;99.90
33717;DHT22;20046;50.746;7.072;2024-01-30T05:31:58;7.30;99.90
33717;DHT22;20046;50.746;7.072;2024-01-30T05:34:24;7.30;99.90
33717;DHT22;20046;50.746;7.072;2024-01-30T05:36:49;7.30;99.90
33717;DHT22;20046;50.746;7.072;2024-01-30T05:39:15;7.30;99.90
33717;DHT22;20046;50.746;7.072;2024-01-30T05:41:40;7.30;99.90
33717;DHT22;20046;50.746;7.072;2024-01-30T05:44:06;7.30;99.90
33717;DHT22;20046;50.746;7.072;2024-01-30T05:46:32;7.30;99.90
33717;DHT22;20046;50.746;7.072;2024-01-30T05:48:58;7.40;99.90
33717;DHT22;20046;50.746;7.072;2024-01-30T05:51:24;7.40;99.90
33717;DHT22;20046;50.746;7.072;2024-01-30T05:53:49;7.40;99.90
33717;DHT22;20046;50.746;7.072;2024-01-30T05:56:15;7.50;99.90
33717;DHT22;20046;50.746;7.072;2024-01-30T05:58:41;7.50;99.90
33717;DHT22;20046;50.746;7.072;2024-01-30T06:01:08;7.50;99.90
33717;DHT22;20046;50.746;7.072;2024-01-30T06:03:34;7.50;99.90
33717;DHT22;20046;50.746;7.072;2024-01-30T06:06:00;7.50;99.90
33717;DHT22;20046;50.746;7.072;2024-01-30T06:08:25;7.50;99.90
33717;DHT22;20046;50.746;7.072;2024-01-30T06:10:51;7.50;99.90
33717;DHT22;20046;50.746;7.072;2024-01-30T06:13:16;7.50;99.90
33717;DHT22;20046;50.746;7.072;2024-01-30T06:15:42;7.50;99.90
33717;DHT22;20046;50.746;7.072;2024-01-30T06:18:08;7.50;99.90
33717;DHT22;20046;50.746;7.072;2024-01-30T06:20:34;7.50;99.90
33717;DHT22;20046;50.746;7.072;2024-01-30T06:22:59;7.50;99.90
33717;DHT22;20046;50.746;7.072;2024-01-30T06:25:25;7.50;99.90
33717;DHT22;20046;50.746;7.072;2024-01-30T06:27:50;7.50;99.90
33717;DHT22;20046;50.746;7.072;2024-01-30T06:30:16;7.50;99.90
33717;DHT22;20046;50.746;7.072;2024-01-30T06:32:42;7.40;99.90
33717;DHT22;20046;50.746;7.072;2024-01-30T06:35:08;7.40;99.90
33717;DHT22;20046;50.746;7.072;2024-01-30T06:37:34;7.40;99.90
33717;DHT22;20046;50.746;7.072;2024-01-30T06:39:59;7.40;99.90
33717;DHT22;20046;50.746;7.072;2024-01-30T06:42:25;7.40;99.90
33717;DHT22;20046;50.746;7.072;2024-01-30T06:44:51;7.50;99.90
33717;DHT22;20046;50.746;7.072;2024-01-30T06:47:16;7.50;99.90
33717;DHT22;20046;50.746;7.072;2024-01-30T06:49:42;7.50;99.90
33717;DHT22;20046;50.746;7.072;2024-01-30T06:52:09;7.50;99.90
33717;DHT22;20046;50.746;7.072;2024-01-30T06:54:34;7.50;99.90
33717;DHT22;20046;50.746;7.072;2024-01-30T06:57:00;7.50;99.90
33717;DHT22;20046;50.746;7.072;2024-01-30T06:59:26;7.50;99.90
33717;DHT22;20046;50.746;7.072;2024-01-30T07:01:51;7.50;99.90
33717;DHT22;20046;50.746;7.072;2024-01-30T07:04:17;7.50;99.90
33717;DHT22;20046;50.746;7.072;2024-01-30T07:06:43;7.50;99.90
33717;DHT22;20046;50.746;7.072;2024-01-30T07:09:09;7.50;99.90
33717;DHT22;20046;50.746;7.072;2024-01-30T07:11:35;7.50;99.90
33717;DHT22;20046;50.746;7.072;2024-01-30T07:14:00;7.50;99.90
33717;DHT22;20046;50.746;7.072;2024-01-30T07:16:29;7.50;99.90
33717;DHT22;20046;50.746;7.072;2024-01-30T07:18:54;7.60;99.90
33717;DHT22;20046;50.746;7.072;2024-01-30T07:21:21;7.60;99.90
33717;DHT22;20046;50.746;7.072;2024-01-30T07:23:50;7.60;99.90
33717;DHT22;20046;50.746;7.072;2024-01-30T07:26:16;7.60;99.90
33717;DHT22;20046;50.746;7.072;2024-01-30T07:28:41;7.60;99.90
33717;DHT22;20046;50.746;7.072;2024-01-30T07:31:07;7.60;99.90
33717;DHT22;20046;50.746;7.072;2024-01-30T07:33:32;7.60;99.90
33717;DHT22;20046;50.746;7.072;2024-01-30T07:35:58;7.70;99.90
33717;DHT22;20046;50.746;7.072;2024-01-30T07:38:23;7.70;99.90
33717;DHT22;20046;50.746;7.072;2024-01-30T07:40:49;7.70;99.90
33717;DHT22;20046;50.746;7.072;2024-01-30T07:43:15;7.70;99.90
33717;DHT22;20046;50.746;7.072;2024-01-30T07:45:40;7.80;99.90
33717;DHT22;20046;50.746;7.072;2024-01-30T07:48:06;7.80;99.90
33717;DHT22;20046;50.746;7.072;2024-01-30T07:50:32;7.90;99.90
33717;DHT22;20046;50.746;7.072;2024-01-30T07:52:59;7.90;99.90
33717;DHT22;20046;50.746;7.072;2024-01-30T07:55:25;7.90;99.90
33717;DHT22;20046;50.746;7.072;2024-01-30T08:01:27;8.00;99.90
33717;DHT22;20046;50.746;7.072;2024-01-30T08:03:53;8.00;99.90
33717;DHT22;20046;50.746;7.072;2024-01-30T08:06:19;8.10;99.90
33717;DHT22;20046;50.746;7.072;2024-01-30T08:08:45;8.10;99.90
33717;DHT22;20046;50.746;7.072;2024-01-30T08:11:10;8.10;99.90
33717;DHT22;20046;50.746;7.072;2024-01-30T08:13:36;8.20;99.90
33717;DHT22;20046;50.746;7.072;2024-01-30T08:16:01;8.20;99.90
33717;DHT22;20046;50.746;7.072;2024-01-30T08:18:27;8.20;99.90
33717;DHT22;20046;50.746;7.072;2024-01-30T08:20:52;8.30;99.90
33717;DHT22;20046;50.746;7.072;2024-01-30T08:23:18;8.30;99.90
33717;DHT22;20046;50.746;7.072;2024-01-30T08:25:43;8.30;99.90
33717;DHT22;20046;50.746;7.072;2024-01-30T08:28:09;8.30;99.90
33717;DHT22;20046;50.746;7.072;2024-01-30T08:30:35;8.30;99.90
33717;DHT22;20046;50.746;7.072;2024-01-30T08:33:01;8.30;99.90
33717;DHT22;20046;50.746;7.072;2024-01-30T08:35:26;8.30;99.90
33717;DHT22;20046;50.746;7.072;2024-01-30T08:37:52;8.40;99.90
33717;DHT22;20046;50.746;7.072;2024-01-30T08:40:17;8.40;99.90
33717;DHT22;20046;50.746;7.072;2024-01-30T08:42:43;8.50;99.90
33717;DHT22;20046;50.746;7.072;2024-01-30T08:45:09;8.50;99.90
33717;DHT22;20046;50.746;7.072;2024-01-30T08:47:35;8.60;99.90
33717;DHT22;20046;50.746;7.072;2024-01-30T08:50:00;8.60;99.90
33717;DHT22;20046;50.746;7.072;2024-01-30T08:52:26;8.60;99.90
33717;DHT22;20046;50.746;7.072;2024-01-30T08:54:51;8.70;99.90
33717;DHT22;20046;50.746;7.072;2024-01-30T08:57:17;8.70;99.90
33717;DHT22;20046;50.746;7.072;2024-01-30T08:59:43;8.80;99.90
33717;DHT22;20046;50.746;7.072;2024-01-30T09:02:11;8.90;99.90
33717;DHT22;20046;50.746;7.072;2024-01-30T09:04:38;9.00;99.90
33717;DHT22;20046;50.746;7.072;2024-01-30T09:07:04;9.20;99.90
33717;DHT22;20046;50.746;7.072;2024-01-30T09:09:33;9.30;99.90
33717;DHT22;20046;50.746;7.072;2024-01-30T09:11:59;9.50;99.90
33717;DHT22;20046;50.746;7.072;2024-01-30T09:14:29;9.70;99.90
33717;DHT22;20046;50.746;7.072;2024-01-30T09:16:56;9.70;99.90
33717;DHT22;20046;50.746;7.072;2024-01-30T09:19:21;9.70;99.90
33717;DHT22;20046;50.746;7.072;2024-01-30T09:21:47;9.70;99.90
33717;DHT22;20046;50.746;7.072;2024-01-30T09:24:12;9.80;99.90
33717;DHT22;20046;50.746;7.072;2024-01-30T09:26:38;10.00;99.90
33717;DHT22;20046;50.746;7.072;2024-01-30T09:29:03;10.10;99.90
33717;DHT22;20046;50.746;7.072;2024-01-30T09:31:29;10.40;99.90
33717;DHT22;20046;50.746;7.072;2024-01-30T09:33:54;10.80;99.90
33717;DHT22;20046;50.746;7.072;2024-01-30T09:36:20;11.20;99.90
33717;DHT22;20046;50.746;7.072;2024-01-30T09:38:46;11.90;99.90
33717;DHT22;20046;50.746;7.072;2024-01-30T09:41:12;12.70;99.90
33717;DHT22;20046;50.746;7.072;2024-01-30T09:43:38;13.20;99.90
33717;DHT22;20046;50.746;7.072;2024-01-30T09:46:12;13.50;99.90
33717;DHT22;20046;50.746;7.072;2024-01-30T09:48:40;13.60;99.90
33717;DHT22;20046;50.746;7.072;2024-01-30T09:51:07;13.80;99.90
33717;DHT22;20046;50.746;7.072;2024-01-30T09:53:33;14.10;99.90
33717;DHT22;20046;50.746;7.072;2024-01-30T09:55:59;14.30;99.90
33717;DHT22;20046;50.746;7.072;2024-01-30T09:58:25;14.30;99.90
33717;DHT22;20046;50.746;7.072;2024-01-30T10:00:51;14.10;99.90
33717;DHT22;20046;50.746;7.072;2024-01-30T10:03:18;14.10;99.90
33717;DHT22;20046;50.746;7.072;2024-01-30T10:05:50;14.20;99.90
33717;DHT22;20046;50.746;7.072;2024-01-30T10:08:17;14.00;99.90
33717;DHT22;20046;50.746;7.072;2024-01-30T10:10:46;13.60;99.90
33717;DHT22;20046;50.746;7.072;2024-01-30T10:13:12;13.10;99.90
33717;DHT22;20046;50.746;7.072;2024-01-30T10:15:38;12.80;99.90
33717;DHT22;20046;50.746;7.072;2024-01-30T10:18:04;12.30;99.90
33717;DHT22;20046;50.746;7.072;2024-01-30T10:20:32;12.20;99.90
33717;DHT22;20046;50.746;7.072;2024-01-30T10:22:58;11.90;99.90
33717;DHT22;20046;50.746;7.072;2024-01-30T10:25:23;11.70;99.90
33717;DHT22;20046;50.746;7.072;2024-01-30T10:27:55;11.60;99.90
33717;DHT22;20046;50.746;7.072;2024-01-30T10:30:22;11.50;99.90
33717;DHT22;20046;50.746;7.072;2024-01-30T10:32:48;11.30;99.90
33717;DHT22;20046;50.746;7.072;2024-01-30T10:35:14;11.20;99.90
33717;DHT22;20046;50.746;7.072;2024-01-30T10:37:41;11.20;99.90
33717;DHT22;20046;50.746;7.072;2024-01-30T10:40:08;11.10;99.90
33717;DHT22;20046;50.746;7.072;2024-01-30T10:42:36;11.00;99.90
33717;DHT22;20046;50.746;7.072;2024-01-30T10:45:08;11.00;99.90
33717;DHT22;20046;50.746;7.072;2024-01-30T10:47:35;11.00;99.90
33717;DHT22;20046;50.746;7.072;2024-01-30T10:50:04;11.00;99.90
33717;DHT22;20046;50.746;7.072;2024-01-30T10:52:31;11.10;99.90
33717;DHT22;20046;50.746;7.072;2024-01-30T10:54:57;11.10;99.90
33717;DHT22;20046;50.746;7.072;2024-01-30T10:57:24;11.10;99.90
33717;DHT22;20046;50.746;7.072;2024-01-30T10:59:52;11.10;99.90
33717;DHT22;20046;50.746;7.072;2024-01-30T11:02:19;11.10;99.90
33717;DHT22;20046;50.746;7.072;2024-01-30T11:04:45;11.00;99.90
33717;DHT22;20046;50.746;7.072;2024-01-30T11:07:18;11.00;99.90
33717;DHT22;20046;50.746;7.072;2024-01-30T11:09:54;11.00;99.90
33717;DHT22;20046;50.746;7.072;2024-01-30T11:12:24;11.00;99.90
33717;DHT22;20046;50.746;7.072;2024-01-30T11:15:01;11.10;99.90
33717;DHT22;20046;50.746;7.072;2024-01-30T11:20:16;11.10;99.90
33717;DHT22;20046;50.746;7.072;2024-01-30T11:22:44;11.20;99.90
33717;DHT22;20046;50.746;7.072;2024-01-30T11:25:19;11.10;99.90
33717;DHT22;20046;50.746;7.072;2024-01-30T11:27:45;11.20;99.90
33717;DHT22;20046;50.746;7.072;2024-01-30T11:30:30;11.20;99.90
33717;DHT22;20046;50.746;7.072;2024-01-30T11:35:25;11.20;99.90
33717;DHT22;20046;50.746;7.072;2024-01-30T11:37:51;11.30;99.90
33717;DHT22;20046;50.746;7.072;2024-01-30T11:40:17;11.40;99.90
33717;DHT22;20046;50.746;7.072;2024-01-30T11:42:42;11.50;99.90
33717;DHT22;20046;50.746;7.072;2024-01-30T11:45:09;11.60;99.90
33717;DHT22;20046;50.746;7.072;2024-01-30T11:47:36;11.70;99.90
33717;DHT22;20046;50.746;7.072;2024-01-30T11:50:04;11.70;99.90
33717;DHT22;20046;50.746;7.072;2024-01-30T11:52:34;11.80;99.90
33717;DHT22;20046;50.746;7.072;2024-01-30T11:55:00;11.90;99.90
33717;DHT22;20046;50.746;7.072;2024-01-30T11:57:27;12.00;99.90
33717;DHT22;20046;50.746;7.072;2024-01-30T11:59:52;12.10;99.90
33717;DHT22;20046;50.746;7.072;2024-01-30T12:02:18;12.20;99.90
33717;DHT22;20046;50.746;7.072;2024-01-30T12:04:44;12.30;99.90
33717;DHT22;20046;50.746;7.072;2024-01-30T12:07:10;12.50;99.90
33717;DHT22;20046;50.746;7.072;2024-01-30T12:09:36;12.60;99.90
33717;DHT22;20046;50.746;7.072;2024-01-30T12:12:01;12.80;99.90
33717;DHT22;20046;50.746;7.072;2024-01-30T12:14:27;13.00;99.90
33717;DHT22;20046;50.746;7.072;2024-01-30T12:16:53;13.00;99.90
33717;DHT22;20046;50.746;7.072;2024-01-30T12:19:25;13.10;99.90
33717;DHT22;20046;50.746;7.072;2024-01-30T12:21:57;13.10;99.90
33717;DHT22;20046;50.746;7.072;2024-01-30T12:24:27;13.10;99.90
33717;DHT22;20046;50.746;7.072;2024-01-30T12:26:57;13.10;99.90
33717;DHT22;20046;50.746;7.072;2024-01-30T12:29:22;13.00;99.90
33717;DHT22;20046;50.746;7.072;2024-01-30T12:31:48;13.00;99.90
33717;DHT22;20046;50.746;7.072;2024-01-30T12:34:14;13.00;99.90
33717;DHT22;20046;50.746;7.072;2024-01-30T12:36:42;13.00;99.90
33717;DHT22;20046;50.746;7.072;2024-01-30T12:39:11;12.90;99.90
33717;DHT22;20046;50.746;7.072;2024-01-30T12:41:38;12.80;99.90
33717;DHT22;20046;50.746;7.072;2024-01-30T12:44:04;12.80;99.90
33717;DHT22;20046;50.746;7.072;2024-01-30T12:46:29;12.70;99.90
33717;DHT22;20046;50.746;7.072;2024-01-30T12:48:55;12.60;99.90
33717;DHT22;20046;50.746;7.072;2024-01-30T12:51:21;12.60;99.90
33717;DHT22;20046;50.746;7.072;2024-01-30T12:53:46;12.60;99.90
33717;DHT22;20046;50.746;7.072;2024-01-30T12:56:13;12.70;99.90
33717;DHT22;20046;50.746;7.072;2024-01-30T12:58:40;12.60;99.90
33717;DHT22;20046;50.746;7.072;2024-01-30T13:01:08;12.60;99.90
33717;DHT22;20046;50.746;7.072;2024-01-30T13:03:34;12.60;99.90
33717;DHT22;20046;50.746;7.072;2024-01-30T13:05:59;12.60;99.90
33717;DHT22;20046;50.746;7.072;2024-01-30T13:08:25;12.60;99.90
33717;DHT22;20046;50.746;7.072;2024-01-30T13:10:50;12.60;99.90
33717;DHT22;20046;50.746;7.072;2024-01-30T13:13:16;12.60;99.90
33717;DHT22;20046;50.746;7.072;2024-01-30T13:15:42;12.70;99.90
33717;DHT22;20046;50.746;7.072;2024-01-30T13:18:08;12.70;99.90
33717;DHT22;20046;50.746;7.072;2024-01-30T13:20:33;12.70;99.90
33717;DHT22;20046;50.746;7.072;2024-01-30T13:22:59;12.70;99.90
33717;DHT22;20046;50.746;7.072;2024-01-30T13:25:25;12.70;99.90
33717;DHT22;20046;50.746;7.072;2024-01-30T13:27:50;12.60;99.90
33717;DHT22;20046;50.746;7.072;2024-01-30T13:30:16;12.60;99.90
33717;DHT22;20046;50.746;7.072;2024-01-30T13:32:41;12.60;99.90
33717;DHT22;20046;50.746;7.072;2024-01-30T13:35:09;12.60;99.90
33717;DHT22;20046;50.746;7.072;2024-01-30T13:37:35;12.50;99.90
33717;DHT22;20046;50.746;7.072;2024-01-30T13:40:03;12.50;99.90
33717;DHT22;20046;50.746;7.072;2024-01-30T13:42:32;12.40;99.90
33717;DHT22;20046;50.746;7.072;2024-01-30T13:44:57;12.40;99.90
33717;DHT22;20046;50.746;7.072;2024-01-30T13:47:23;12.40;99.90
33717;DHT22;20046;50.746;7.072;2024-01-30T13:49:49;12.30;99.90
33717;DHT22;20046;50.746;7.072;2024-01-30T13:52:14;12.30;99.90
33717;DHT22;20046;50.746;7.072;2024-01-30T13:54:40;12.30;99.90
33717;DHT22;20046;50.746;7.072;2024-01-30T13:57:06;12.40;99.90
33717;DHT22;20046;50.746;7.072;2024-01-30T13:59:32;12.30;99.90
33717;DHT22;20046;50.746;7.072;2024-01-30T14:01:58;12.30;99.90
33717;DHT22;20046;50.746;7.072;2024-01-30T14:04:24;12.20;99.90
33717;DHT22;20046;50.746;7.072;2024-01-30T14:06:49;12.30;99.90
33717;DHT22;20046;50.746;7.072;2024-01-30T14:09:15;12.30;99.90
33717;DHT22;20046;50.746;7.072;2024-01-30T14:11:41;12.30;99.90
33717;DHT22;20046;50.746;7.072;2024-01-30T14:14:07;12.40;99.90
33717;DHT22;20046;50.746;7.072;2024-01-30T14:16:32;12.40;99.90
33717;DHT22;20046;50.746;7.072;2024-01-30T14:18:58;12.50;99.90
33717;DHT22;20046;50.746;7.072;2024-01-30T14:21:24;12.50;99.90
33717;DHT22;20046;50.746;7.072;2024-01-30T14:23:49;12.50;99.90
33717;DHT22;20046;50.746;7.072;2024-01-30T14:26:24;12.50;99.90
33717;DHT22;20046;50.746;7.072;2024-01-30T14:28:49;12.50;99.90
33717;DHT22;20046;50.746;7.072;2024-01-30T14:31:15;12.50;99.90
33717;DHT22;20046;50.746;7.072;2024-01-30T14:33:42;12.50;99.90
33717;DHT22;20046;50.746;7.072;2024-01-30T14:36:07;12.40;99.90
33717;DHT22;20046;50.746;7.072;2024-01-30T14:38:34;12.30;99.90
33717;DHT22;20046;50.746;7.072;2024-01-30T14:41:00;12.30;99.90
33717;DHT22;20046;50.746;7.072;2024-01-30T14:43:25;12.20;99.90
33717;DHT22;20046;50.746;7.072;2024-01-30T14:45:51;12.20;99.90
33717;DHT22;20046;50.746;7.072;2024-01-30T14:48:17;12.10;99.90
33717;DHT22;20046;50.746;7.072;2024-01-30T14:50:43;12.00;99.90
33717;DHT22;20046;50.746;7.072;2024-01-30T14:53:09;12.00;99.90
33717;DHT22;20046;50.746;7.072;2024-01-30T14:55:34;12.00;99.90
33717;DHT22;20046;50.746;7.072;2024-01-30T14:58:00;11.90;99.90
33717;DHT22;20046;50.746;7.072;2024-01-30T15:00:27;11.90;99.90
33717;DHT22;20046;50.746;7.072;2024-01-30T15:02:53;11.90;99.90
33717;DHT22;20046;50.746;7.072;2024-01-30T15:05:18;11.90;99.90
33717;DHT22;20046;50.746;7.072;2024-01-30T15:07:44;11.90;99.90
33717;DHT22;20046;50.746;7.072;2024-01-30T15:10:10;11.80;99.90
33717;DHT22;20046;50.746;7.072;2024-01-30T15:12:36;11.80;99.90
33717;DHT22;20046;50.746;7.072;2024-01-30T15:15:03;11.80;99.90
33717;DHT22;20046;50.746;7.072;2024-01-30T15:17:28;11.70;99.90
33717;DHT22;20046;50.746;7.072;2024-01-30T15:19:54;11.70;99.90
33717;DHT22;20046;50.746;7.072;2024-01-30T15:22:19;11.60;99.90
33717;DHT22;20046;50.746;7.072;2024-01-30T15:24:45;11.60;99.90
33717;DHT22;20046;50.746;7.072;2024-01-30T15:27:10;11.60;99.90
33717;DHT22;20046;50.746;7.072;2024-01-30T15:29:36;11.50;99.90
33717;DHT22;20046;50.746;7.072;2024-01-30T15:32:01;11.50;99.90
33717;DHT22;20046;50.746;7.072;2024-01-30T15:34:28;11.50;99.90
33717;DHT22;20046;50.746;7.072;2024-01-30T15:36:53;11.50;99.90
33717;DHT22;20046;50.746;7.072;2024-01-30T15:39:19;11.50;99.90
33717;DHT22;20046;50.746;7.072;2024-01-30T15:41:45;11.40;99.90